sensor_id;sensor_type;location;lat;lon;timestamp;P1;durP1;ratioP1;P2;durP2;ratioP2
5787;SDS011;2920;48.158;12.254;2023-04-07T00:02:05;23.92;;;10.13;;
5787;SDS011;2920;48.158;12.254;2023-04-07T00:04:31;20.67;;;9.50;;
5787;SDS011;2920;48.158;12.254;2023-04-07T00:06:56;19.63;;;9.18;;
5787;SDS011;2920;48.158;12.254;2023-04-07T00:09:21;20.20;;;9.65;;
5787;SDS011;2920;48.158;12.254;2023-04-07T00:11:47;18.38;;;9.57;;
5787;SDS011;2920;48.158;12.254;2023-04-07T00:14:12;17.58;;;9.40;;
5787;SDS011;2920;48.158;12.254;2023-04-07T00:16:38;16.38;;;8.57;;
5787;SDS011;2920;48.158;12.254;2023-04-07T00:19:03;19.60;;;9.57;;
5787;SDS011;2920;48.158;12.254;2023-04-07T00:21:28;15.30;;;8.63;;
5787;SDS011;2920;48.158;12.254;2023-04-07T00:23:54;18.73;;;9.40;;
5787;SDS011;2920;48.158;12.254;2023-04-07T00:26:19;24.98;;;11.55;;
5787;SDS011;2920;48.158;12.254;2023-04-07T00:28:45;18.77;;;10.48;;
5787;SDS011;2920;48.158;12.254;2023-04-07T00:31:10;17.83;;;8.48;;
5787;SDS011;2920;48.158;12.254;2023-04-07T00:33:35;16.50;;;9.80;;
5787;SDS011;2920;48.158;12.254;2023-04-07T00:36:01;16.98;;;9.75;;
5787;SDS011;2920;48.158;12.254;2023-04-07T00:38:26;18.23;;;8.60;;
5787;SDS011;2920;48.158;12.254;2023-04-07T00:40:58;16.63;;;9.48;;
5787;SDS011;2920;48.158;12.254;2023-04-07T00:43:23;19.15;;;9.93;;
5787;SDS011;2920;48.158;12.254;2023-04-07T00:45:49;20.55;;;10.07;;
5787;SDS011;2920;48.158;12.254;2023-04-07T00:48:15;18.25;;;9.15;;
5787;SDS011;2920;48.158;12.254;2023-04-07T00:50:40;23.80;;;11.77;;
5787;SDS011;2920;48.158;12.254;2023-04-07T00:53:05;18.35;;;9.82;;
5787;SDS011;2920;48.158;12.254;2023-04-07T00:55:31;19.10;;;10.15;;
5787;SDS011;2920;48.158;12.254;2023-04-07T00:57:56;20.77;;;10.43;;
5787;SDS011;2920;48.158;12.254;2023-04-07T01:00:22;20.80;;;10.07;;
5787;SDS011;2920;48.158;12.254;2023-04-07T01:02:51;18.73;;;9.82;;
5787;SDS011;2920;48.158;12.254;2023-04-07T01:05:27;16.75;;;8.68;;
5787;SDS011;2920;48.158;12.254;2023-04-07T01:11:10;16.08;;;8.43;;
5787;SDS011;2920;48.158;12.254;2023-04-07T01:13:47;20.33;;;9.25;;
5787;SDS011;2920;48.158;12.254;2023-04-07T01:18:56;18.48;;;8.80;;
5787;SDS011;2920;48.158;12.254;2023-04-07T01:21:25;18.05;;;9.25;;
5787;SDS011;2920;48.158;12.254;2023-04-07T01:24:20;15.88;;;8.00;;
5787;SDS011;2920;48.158;12.254;2023-04-07T01:26:54;22.30;;;11.23;;
5787;SDS011;2920;48.158;12.254;2023-04-07T01:32:03;23.88;;;10.25;;
5787;SDS011;2920;48.158;12.254;2023-04-07T01:34:30;21.92;;;11.00;;
5787;SDS011;2920;48.158;12.254;2023-04-07T01:36:56;19.95;;;9.80;;
5787;SDS011;2920;48.158;12.254;2023-04-07T01:39:23;19.17;;;8.82;;
5787;SDS011;2920;48.158;12.254;2023-04-07T01:41:50;19.08;;;9.80;;
5787;SDS011;2920;48.158;12.254;2023-04-07T01:44:19;16.23;;;9.32;;
5787;SDS011;2920;48.158;12.254;2023-04-07T01:46:45;18.40;;;8.50;;
5787;SDS011;2920;48.158;12.254;2023-04-07T01:49:11;16.58;;;8.32;;
5787;SDS011;2920;48.158;12.254;2023-04-07T01:51:37;18.08;;;9.05;;
5787;SDS011;2920;48.158;12.254;2023-04-07T01:54:03;19.02;;;9.70;;
5787;SDS011;2920;48.158;12.254;2023-04-07T01:56:29;20.55;;;10.10;;
5787;SDS011;2920;48.158;12.254;2023-04-07T01:58:54;18.60;;;9.13;;
5787;SDS011;2920;48.158;12.254;2023-04-07T02:01:20;21.13;;;10.10;;
5787;SDS011;2920;48.158;12.254;2023-04-07T02:03:55;18.15;;;9.30;;
5787;SDS011;2920;48.158;12.254;2023-04-07T02:06:33;19.13;;;9.50;;
5787;SDS011;2920;48.158;12.254;2023-04-07T02:09:06;14.60;;;8.32;;
5787;SDS011;2920;48.158;12.254;2023-04-07T02:11:35;22.27;;;10.73;;
5787;SDS011;2920;48.158;12.254;2023-04-07T02:14:01;18.27;;;9.88;;
5787;SDS011;2920;48.158;12.254;2023-04-07T02:16:31;16.20;;;9.38;;
5787;SDS011;2920;48.158;12.254;2023-04-07T02:18:56;22.92;;;12.02;;
5787;SDS011;2920;48.158;12.254;2023-04-07T02:21:22;20.83;;;11.45;;
5787;SDS011;2920;48.158;12.254;2023-04-07T02:23:48;24.02;;;10.75;;
5787;SDS011;2920;48.158;12.254;2023-04-07T02:26:13;22.92;;;10.77;;
5787;SDS011;2920;48.158;12.254;2023-04-07T02:28:39;22.00;;;11.80;;
5787;SDS011;2920;48.158;12.254;2023-04-07T02:31:04;17.05;;;8.88;;
5787;SDS011;2920;48.158;12.254;2023-04-07T02:33:30;16.92;;;9.02;;
5787;SDS011;2920;48.158;12.254;2023-04-07T02:35:55;18.05;;;9.45;;
5787;SDS011;2920;48.158;12.254;2023-04-07T02:38:20;19.02;;;9.95;;
5787;SDS011;2920;48.158;12.254;2023-04-07T02:40:45;13.13;;;7.30;;
5787;SDS011;2920;48.158;12.254;2023-04-07T02:43:11;16.48;;;8.07;;
5787;SDS011;2920;48.158;12.254;2023-04-07T02:45:36;20.05;;;9.65;;
5787;SDS011;2920;48.158;12.254;2023-04-07T02:48:01;12.85;;;6.75;;
5787;SDS011;2920;48.158;12.254;2023-04-07T02:50:27;15.52;;;8.07;;
5787;SDS011;2920;48.158;12.254;2023-04-07T02:52:53;13.13;;;7.28;;
5787;SDS011;2920;48.158;12.254;2023-04-07T02:55:18;14.32;;;9.43;;
5787;SDS011;2920;48.158;12.254;2023-04-07T02:57:43;18.80;;;9.45;;
5787;SDS011;2920;48.158;12.254;2023-04-07T03:00:09;20.65;;;9.30;;
5787;SDS011;2920;48.158;12.254;2023-04-07T03:02:34;19.60;;;10.05;;
5787;SDS011;2920;48.158;12.254;2023-04-07T03:05:00;18.10;;;9.38;;
5787;SDS011;2920;48.158;12.254;2023-04-07T03:07:26;18.35;;;9.43;;
5787;SDS011;2920;48.158;12.254;2023-04-07T03:09:51;17.83;;;9.52;;
5787;SDS011;2920;48.158;12.254;2023-04-07T03:12:16;21.98;;;9.98;;
5787;SDS011;2920;48.158;12.254;2023-04-07T03:14:42;16.30;;;9.00;;
5787;SDS011;2920;48.158;12.254;2023-04-07T03:17:07;15.98;;;8.70;;
5787;SDS011;2920;48.158;12.254;2023-04-07T03:19:32;19.58;;;9.02;;
5787;SDS011;2920;48.158;12.254;2023-04-07T03:21:58;20.80;;;10.77;;
5787;SDS011;2920;48.158;12.254;2023-04-07T03:24:23;20.30;;;9.43;;
5787;SDS011;2920;48.158;12.254;2023-04-07T03:26:48;18.00;;;9.80;;
5787;SDS011;2920;48.158;12.254;2023-04-07T03:29:15;14.60;;;8.68;;
5787;SDS011;2920;48.158;12.254;2023-04-07T03:31:40;19.20;;;9.45;;
5787;SDS011;2920;48.158;12.254;2023-04-07T03:34:06;17.83;;;8.40;;
5787;SDS011;2920;48.158;12.254;2023-04-07T03:36:31;19.15;;;8.90;;
5787;SDS011;2920;48.158;12.254;2023-04-07T03:38:56;17.27;;;9.07;;
5787;SDS011;2920;48.158;12.254;2023-04-07T03:41:22;20.98;;;9.90;;
5787;SDS011;2920;48.158;12.254;2023-04-07T03:43:47;17.70;;;10.18;;
5787;SDS011;2920;48.158;12.254;2023-04-07T03:46:13;15.98;;;7.18;;
5787;SDS011;2920;48.158;12.254;2023-04-07T03:48:38;18.75;;;9.38;;
5787;SDS011;2920;48.158;12.254;2023-04-07T03:51:04;18.23;;;8.55;;
5787;SDS011;2920;48.158;12.254;2023-04-07T03:53:30;21.92;;;11.45;;
5787;SDS011;2920;48.158;12.254;2023-04-07T03:55:56;17.60;;;9.48;;
5787;SDS011;2920;48.158;12.254;2023-04-07T03:58:21;17.45;;;9.27;;
5787;SDS011;2920;48.158;12.254;2023-04-07T04:00:46;20.42;;;10.57;;
5787;SDS011;2920;48.158;12.254;2023-04-07T04:03:12;19.17;;;9.77;;
5787;SDS011;2920;48.158;12.254;2023-04-07T04:05:37;18.63;;;9.15;;
5787;SDS011;2920;48.158;12.254;2023-04-07T04:08:02;16.67;;;8.82;;
5787;SDS011;2920;48.158;12.254;2023-04-07T04:10:28;15.82;;;8.45;;
5787;SDS011;2920;48.158;12.254;2023-04-07T04:12:53;22.80;;;10.90;;
5787;SDS011;2920;48.158;12.254;2023-04-07T04:15:18;17.08;;;8.60;;
5787;SDS011;2920;48.158;12.254;2023-04-07T04:17:44;19.02;;;9.10;;
5787;SDS011;2920;48.158;12.254;2023-04-07T04:20:09;17.60;;;9.70;;
5787;SDS011;2920;48.158;12.254;2023-04-07T04:22:35;15.50;;;8.65;;
5787;SDS011;2920;48.158;12.254;2023-04-07T04:25:00;18.20;;;9.07;;
5787;SDS011;2920;48.158;12.254;2023-04-07T04:27:26;21.20;;;10.38;;
5787;SDS011;2920;48.158;12.254;2023-04-07T04:29:51;19.55;;;9.95;;
5787;SDS011;2920;48.158;12.254;2023-04-07T04:32:17;17.88;;;9.30;;
5787;SDS011;2920;48.158;12.254;2023-04-07T04:34:43;13.68;;;7.43;;
5787;SDS011;2920;48.158;12.254;2023-04-07T04:37:08;14.77;;;7.88;;
5787;SDS011;2920;48.158;12.254;2023-04-07T04:39:34;14.55;;;7.13;;
5787;SDS011;2920;48.158;12.254;2023-04-07T04:41:59;15.52;;;7.75;;
5787;SDS011;2920;48.158;12.254;2023-04-07T04:44:25;14.85;;;8.32;;
5787;SDS011;2920;48.158;12.254;2023-04-07T04:46:50;10.05;;;6.95;;
5787;SDS011;2920;48.158;12.254;2023-04-07T04:49:16;12.38;;;6.70;;
5787;SDS011;2920;48.158;12.254;2023-04-07T04:51:42;25.50;;;10.30;;
5787;SDS011;2920;48.158;12.254;2023-04-07T04:54:08;16.15;;;7.60;;
5787;SDS011;2920;48.158;12.254;2023-04-07T04:56:33;16.85;;;8.65;;
5787;SDS011;2920;48.158;12.254;2023-04-07T04:58:59;16.13;;;9.43;;
5787;SDS011;2920;48.158;12.254;2023-04-07T05:01:24;16.35;;;8.32;;
5787;SDS011;2920;48.158;12.254;2023-04-07T05:03:49;18.13;;;9.27;;
5787;SDS011;2920;48.158;12.254;2023-04-07T05:06:15;21.40;;;9.60;;
5787;SDS011;2920;48.158;12.254;2023-04-07T05:08:40;16.38;;;9.30;;
5787;SDS011;2920;48.158;12.254;2023-04-07T05:11:05;16.13;;;8.75;;
5787;SDS011;2920;48.158;12.254;2023-04-07T05:13:30;15.15;;;8.15;;
5787;SDS011;2920;48.158;12.254;2023-04-07T05:15:56;19.63;;;8.98;;
5787;SDS011;2920;48.158;12.254;2023-04-07T05:18:21;21.27;;;9.43;;
5787;SDS011;2920;48.158;12.254;2023-04-07T05:20:47;13.20;;;7.13;;
5787;SDS011;2920;48.158;12.254;2023-04-07T05:23:13;18.90;;;8.65;;
5787;SDS011;2920;48.158;12.254;2023-04-07T05:25:39;19.00;;;8.30;;
5787;SDS011;2920;48.158;12.254;2023-04-07T05:28:05;17.67;;;7.60;;
5787;SDS011;2920;48.158;12.254;2023-04-07T05:30:30;13.45;;;7.65;;
5787;SDS011;2920;48.158;12.254;2023-04-07T05:32:55;17.60;;;8.68;;
5787;SDS011;2920;48.158;12.254;2023-04-07T05:35:21;13.93;;;7.45;;
5787;SDS011;2920;48.158;12.254;2023-04-07T05:37:46;16.38;;;8.18;;
5787;SDS011;2920;48.158;12.254;2023-04-07T05:40:11;14.93;;;7.47;;
5787;SDS011;2920;48.158;12.254;2023-04-07T05:42:37;15.43;;;8.35;;
5787;SDS011;2920;48.158;12.254;2023-04-07T05:45:02;16.85;;;8.40;;
5787;SDS011;2920;48.158;12.254;2023-04-07T05:47:28;14.38;;;8.60;;
5787;SDS011;2920;48.158;12.254;2023-04-07T05:49:54;20.98;;;10.18;;
5787;SDS011;2920;48.158;12.254;2023-04-07T05:52:19;15.55;;;9.25;;
5787;SDS011;2920;48.158;12.254;2023-04-07T05:54:45;17.20;;;9.35;;
5787;SDS011;2920;48.158;12.254;2023-04-07T05:57:10;15.40;;;9.45;;
5787;SDS011;2920;48.158;12.254;2023-04-07T05:59:36;17.80;;;9.98;;
5787;SDS011;2920;48.158;12.254;2023-04-07T06:02:01;16.50;;;9.00;;
5787;SDS011;2920;48.158;12.254;2023-04-07T06:04:27;14.77;;;8.27;;
5787;SDS011;2920;48.158;12.254;2023-04-07T06:06:53;16.10;;;8.30;;
5787;SDS011;2920;48.158;12.254;2023-04-07T06:09:19;19.75;;;9.27;;
5787;SDS011;2920;48.158;12.254;2023-04-07T06:11:45;15.75;;;8.23;;
5787;SDS011;2920;48.158;12.254;2023-04-07T06:14:11;14.25;;;7.95;;
5787;SDS011;2920;48.158;12.254;2023-04-07T06:16:36;12.60;;;7.40;;
5787;SDS011;2920;48.158;12.254;2023-04-07T06:19:01;11.85;;;7.65;;
5787;SDS011;2920;48.158;12.254;2023-04-07T06:21:27;16.67;;;9.73;;
5787;SDS011;2920;48.158;12.254;2023-04-07T06:23:52;15.68;;;9.68;;
5787;SDS011;2920;48.158;12.254;2023-04-07T06:26:18;13.05;;;8.18;;
5787;SDS011;2920;48.158;12.254;2023-04-07T06:28:43;12.90;;;6.72;;
5787;SDS011;2920;48.158;12.254;2023-04-07T06:31:09;20.33;;;10.13;;
5787;SDS011;2920;48.158;12.254;2023-04-07T06:33:34;14.20;;;9.02;;
5787;SDS011;2920;48.158;12.254;2023-04-07T06:36:00;13.55;;;9.25;;
5787;SDS011;2920;48.158;12.254;2023-04-07T06:38:26;15.23;;;8.30;;
5787;SDS011;2920;48.158;12.254;2023-04-07T06:40:51;15.18;;;8.25;;
5787;SDS011;2920;48.158;12.254;2023-04-07T06:43:16;16.33;;;7.97;;
5787;SDS011;2920;48.158;12.254;2023-04-07T06:45:41;15.45;;;8.48;;
5787;SDS011;2920;48.158;12.254;2023-04-07T06:48:07;11.57;;;7.43;;
5787;SDS011;2920;48.158;12.254;2023-04-07T06:50:34;12.68;;;7.15;;
5787;SDS011;2920;48.158;12.254;2023-04-07T06:53:01;17.27;;;8.75;;
5787;SDS011;2920;48.158;12.254;2023-04-07T06:55:26;10.73;;;7.40;;
5787;SDS011;2920;48.158;12.254;2023-04-07T06:57:51;12.60;;;7.80;;
5787;SDS011;2920;48.158;12.254;2023-04-07T07:00:17;12.02;;;7.35;;
5787;SDS011;2920;48.158;12.254;2023-04-07T07:02:43;10.55;;;6.13;;
5787;SDS011;2920;48.158;12.254;2023-04-07T07:05:08;10.23;;;6.45;;
5787;SDS011;2920;48.158;12.254;2023-04-07T07:07:35;10.77;;;6.38;;
5787;SDS011;2920;48.158;12.254;2023-04-07T07:10:00;14.13;;;6.97;;
5787;SDS011;2920;48.158;12.254;2023-04-07T07:12:26;13.25;;;6.45;;
5787;SDS011;2920;48.158;12.254;2023-04-07T07:14:51;11.23;;;6.43;;
5787;SDS011;2920;48.158;12.254;2023-04-07T07:17:16;10.80;;;6.35;;
5787;SDS011;2920;48.158;12.254;2023-04-07T07:19:42;13.05;;;6.47;;
5787;SDS011;2920;48.158;12.254;2023-04-07T07:22:07;9.10;;;5.63;;
5787;SDS011;2920;48.158;12.254;2023-04-07T07:24:32;9.43;;;6.78;;
5787;SDS011;2920;48.158;12.254;2023-04-07T07:26:58;10.93;;;6.43;;
5787;SDS011;2920;48.158;12.254;2023-04-07T07:29:24;8.43;;;5.57;;
5787;SDS011;2920;48.158;12.254;2023-04-07T07:31:49;12.63;;;6.85;;
5787;SDS011;2920;48.158;12.254;2023-04-07T07:34:14;11.02;;;6.28;;
5787;SDS011;2920;48.158;12.254;2023-04-07T07:36:40;10.45;;;6.35;;
5787;SDS011;2920;48.158;12.254;2023-04-07T07:39:05;11.95;;;7.57;;
5787;SDS011;2920;48.158;12.254;2023-04-07T07:41:30;9.68;;;5.90;;
5787;SDS011;2920;48.158;12.254;2023-04-07T07:43:56;9.13;;;6.20;;
5787;SDS011;2920;48.158;12.254;2023-04-07T07:46:21;9.20;;;5.88;;
5787;SDS011;2920;48.158;12.254;2023-04-07T07:48:48;8.27;;;5.38;;
5787;SDS011;2920;48.158;12.254;2023-04-07T07:51:13;9.82;;;6.35;;
5787;SDS011;2920;48.158;12.254;2023-04-07T07:53:39;11.73;;;5.75;;
5787;SDS011;2920;48.158;12.254;2023-04-07T07:56:04;11.73;;;5.97;;
5787;SDS011;2920;48.158;12.254;2023-04-07T07:58:30;8.73;;;6.13;;
5787;SDS011;2920;48.158;12.254;2023-04-07T08:00:55;7.85;;;5.43;;
5787;SDS011;2920;48.158;12.254;2023-04-07T08:03:20;8.30;;;5.82;;
5787;SDS011;2920;48.158;12.254;2023-04-07T08:05:47;10.95;;;6.10;;
5787;SDS011;2920;48.158;12.254;2023-04-07T08:08:13;9.25;;;5.78;;
5787;SDS011;2920;48.158;12.254;2023-04-07T08:10:38;13.20;;;6.88;;
5787;SDS011;2920;48.158;12.254;2023-04-07T08:13:03;10.55;;;6.53;;
5787;SDS011;2920;48.158;12.254;2023-04-07T08:15:29;12.60;;;6.80;;
5787;SDS011;2920;48.158;12.254;2023-04-07T08:17:54;10.35;;;5.97;;
5787;SDS011;2920;48.158;12.254;2023-04-07T08:20:20;8.80;;;6.18;;
5787;SDS011;2920;48.158;12.254;2023-04-07T08:22:45;10.77;;;5.60;;
5787;SDS011;2920;48.158;12.254;2023-04-07T08:25:10;10.90;;;5.53;;
5787;SDS011;2920;48.158;12.254;2023-04-07T08:27:36;9.45;;;6.20;;
5787;SDS011;2920;48.158;12.254;2023-04-07T08:30:03;12.25;;;6.80;;
5787;SDS011;2920;48.158;12.254;2023-04-07T08:32:33;12.70;;;6.65;;
5787;SDS011;2920;48.158;12.254;2023-04-07T08:35:03;10.25;;;5.88;;
5787;SDS011;2920;48.158;12.254;2023-04-07T08:37:29;10.55;;;5.97;;
5787;SDS011;2920;48.158;12.254;2023-04-07T08:39:55;9.52;;;6.03;;
5787;SDS011;2920;48.158;12.254;2023-04-07T08:42:21;14.27;;;5.13;;
5787;SDS011;2920;48.158;12.254;2023-04-07T08:44:58;9.30;;;5.95;;
5787;SDS011;2920;48.158;12.254;2023-04-07T08:47:27;9.13;;;5.60;;
5787;SDS011;2920;48.158;12.254;2023-04-07T08:49:56;7.80;;;5.45;;
5787;SDS011;2920;48.158;12.254;2023-04-07T08:52:26;7.95;;;5.10;;
5787;SDS011;2920;48.158;12.254;2023-04-07T08:55:00;9.27;;;6.07;;
5787;SDS011;2920;48.158;12.254;2023-04-07T08:57:28;15.15;;;5.88;;
5787;SDS011;2920;48.158;12.254;2023-04-07T08:59:56;10.57;;;4.97;;
5787;SDS011;2920;48.158;12.254;2023-04-07T09:02:37;9.18;;;5.35;;
5787;SDS011;2920;48.158;12.254;2023-04-07T09:05:04;7.05;;;5.07;;
5787;SDS011;2920;48.158;12.254;2023-04-07T09:07:32;9.98;;;5.72;;
5787;SDS011;2920;48.158;12.254;2023-04-07T09:09:58;7.30;;;5.10;;
5787;SDS011;2920;48.158;12.254;2023-04-07T09:12:24;10.32;;;5.00;;
5787;SDS011;2920;48.158;12.254;2023-04-07T09:14:49;8.02;;;5.35;;
5787;SDS011;2920;48.158;12.254;2023-04-07T09:17:16;10.60;;;5.78;;
5787;SDS011;2920;48.158;12.254;2023-04-07T09:19:42;7.97;;;5.40;;
5787;SDS011;2920;48.158;12.254;2023-04-07T09:22:07;8.60;;;4.78;;
5787;SDS011;2920;48.158;12.254;2023-04-07T09:24:36;5.50;;;4.10;;
5787;SDS011;2920;48.158;12.254;2023-04-07T09:27:11;7.90;;;5.05;;
5787;SDS011;2920;48.158;12.254;2023-04-07T09:29:37;8.35;;;5.30;;
5787;SDS011;2920;48.158;12.254;2023-04-07T09:32:04;9.38;;;5.07;;
5787;SDS011;2920;48.158;12.254;2023-04-07T09:34:31;6.90;;;5.63;;
5787;SDS011;2920;48.158;12.254;2023-04-07T09:37:00;6.85;;;4.63;;
5787;SDS011;2920;48.158;12.254;2023-04-07T09:39:25;8.93;;;4.95;;
5787;SDS011;2920;48.158;12.254;2023-04-07T09:41:51;7.40;;;4.82;;
5787;SDS011;2920;48.158;12.254;2023-04-07T09:44:20;7.80;;;5.25;;
5787;SDS011;2920;48.158;12.254;2023-04-07T09:46:53;8.10;;;5.10;;
5787;SDS011;2920;48.158;12.254;2023-04-07T09:49:20;8.55;;;5.68;;
5787;SDS011;2920;48.158;12.254;2023-04-07T09:51:56;8.35;;;4.82;;
5787;SDS011;2920;48.158;12.254;2023-04-07T09:54:39;7.95;;;5.55;;
5787;SDS011;2920;48.158;12.254;2023-04-07T09:57:07;11.82;;;5.97;;
5787;SDS011;2920;48.158;12.254;2023-04-07T09:59:33;8.38;;;4.95;;
5787;SDS011;2920;48.158;12.254;2023-04-07T10:02:00;6.13;;;4.68;;
5787;SDS011;2920;48.158;12.254;2023-04-07T10:04:26;6.30;;;4.88;;
5787;SDS011;2920;48.158;12.254;2023-04-07T10:06:53;8.13;;;5.45;;
5787;SDS011;2920;48.158;12.254;2023-04-07T10:09:18;6.78;;;5.00;;
5787;SDS011;2920;48.158;12.254;2023-04-07T10:11:45;8.98;;;6.70;;
5787;SDS011;2920;48.158;12.254;2023-04-07T10:14:10;6.72;;;4.10;;
5787;SDS011;2920;48.158;12.254;2023-04-07T10:16:36;8.68;;;5.28;;
5787;SDS011;2920;48.158;12.254;2023-04-07T10:19:02;8.95;;;5.45;;
5787;SDS011;2920;48.158;12.254;2023-04-07T10:21:28;9.38;;;4.95;;
5787;SDS011;2920;48.158;12.254;2023-04-07T10:23:59;8.73;;;5.22;;
5787;SDS011;2920;48.158;12.254;2023-04-07T10:26:58;16.85;;;8.52;;
5787;SDS011;2920;48.158;12.254;2023-04-07T10:29:28;17.55;;;6.53;;
5787;SDS011;2920;48.158;12.254;2023-04-07T10:31:58;7.93;;;5.72;;
5787;SDS011;2920;48.158;12.254;2023-04-07T10:34:54;7.35;;;4.85;;
5787;SDS011;2920;48.158;12.254;2023-04-07T10:37:12;9.13;;;6.25;;
5787;SDS011;2920;48.158;12.254;2023-04-07T10:39:39;6.53;;;4.57;;
5787;SDS011;2920;48.158;12.254;2023-04-07T10:42:05;8.05;;;4.85;;
5787;SDS011;2920;48.158;12.254;2023-04-07T10:47:05;7.47;;;5.13;;
5787;SDS011;2920;48.158;12.254;2023-04-07T10:49:31;8.18;;;5.47;;
5787;SDS011;2920;48.158;12.254;2023-04-07T10:54:35;5.78;;;3.83;;
5787;SDS011;2920;48.158;12.254;2023-04-07T10:59:26;9.90;;;5.85;;
5787;SDS011;2920;48.158;12.254;2023-04-07T11:04:36;7.55;;;4.97;;
5787;SDS011;2920;48.158;12.254;2023-04-07T11:07:02;5.43;;;4.00;;
5787;SDS011;2920;48.158;12.254;2023-04-07T11:09:27;8.98;;;5.68;;
5787;SDS011;2920;48.158;12.254;2023-04-07T11:11:53;7.70;;;5.82;;
5787;SDS011;2920;48.158;12.254;2023-04-07T11:14:25;5.70;;;3.85;;
5787;SDS011;2920;48.158;12.254;2023-04-07T11:16:51;5.63;;;4.38;;
5787;SDS011;2920;48.158;12.254;2023-04-07T11:19:16;6.40;;;4.90;;
5787;SDS011;2920;48.158;12.254;2023-04-07T11:21:41;8.05;;;5.30;;
5787;SDS011;2920;48.158;12.254;2023-04-07T11:24:07;5.93;;;5.13;;
5787;SDS011;2920;48.158;12.254;2023-04-07T11:26:39;4.72;;;3.85;;
5787;SDS011;2920;48.158;12.254;2023-04-07T11:29:05;8.20;;;5.70;;
5787;SDS011;2920;48.158;12.254;2023-04-07T11:31:31;5.25;;;4.15;;
5787;SDS011;2920;48.158;12.254;2023-04-07T11:33:58;11.73;;;5.13;;
5787;SDS011;2920;48.158;12.254;2023-04-07T11:36:26;9.25;;;4.25;;
5787;SDS011;2920;48.158;12.254;2023-04-07T11:38:56;4.88;;;3.90;;
5787;SDS011;2920;48.158;12.254;2023-04-07T11:41:22;6.05;;;4.95;;
5787;SDS011;2920;48.158;12.254;2023-04-07T11:43:48;6.40;;;4.55;;
5787;SDS011;2920;48.158;12.254;2023-04-07T11:46:15;5.95;;;5.15;;
5787;SDS011;2920;48.158;12.254;2023-04-07T11:48:42;9.05;;;5.72;;
5787;SDS011;2920;48.158;12.254;2023-04-07T11:51:20;5.78;;;4.80;;
5787;SDS011;2920;48.158;12.254;2023-04-07T11:53:53;5.20;;;3.70;;
5787;SDS011;2920;48.158;12.254;2023-04-07T11:56:19;7.80;;;5.15;;
5787;SDS011;2920;48.158;12.254;2023-04-07T11:58:52;6.50;;;4.78;;
5787;SDS011;2920;48.158;12.254;2023-04-07T12:01:18;8.90;;;5.25;;
5787;SDS011;2920;48.158;12.254;2023-04-07T12:03:55;7.78;;;5.00;;
5787;SDS011;2920;48.158;12.254;2023-04-07T12:06:25;6.30;;;4.97;;
5787;SDS011;2920;48.158;12.254;2023-04-07T12:09:03;8.15;;;5.50;;
5787;SDS011;2920;48.158;12.254;2023-04-07T12:11:29;6.93;;;4.50;;
5787;SDS011;2920;48.158;12.254;2023-04-07T12:13:55;6.63;;;5.30;;
5787;SDS011;2920;48.158;12.254;2023-04-07T12:16:21;6.80;;;5.38;;
5787;SDS011;2920;48.158;12.254;2023-04-07T12:18:47;6.28;;;5.15;;
5787;SDS011;2920;48.158;12.254;2023-04-07T12:21:13;5.95;;;4.63;;
5787;SDS011;2920;48.158;12.254;2023-04-07T12:23:38;7.90;;;4.82;;
5787;SDS011;2920;48.158;12.254;2023-04-07T12:26:03;6.95;;;5.20;;
5787;SDS011;2920;48.158;12.254;2023-04-07T12:28:29;5.93;;;4.28;;
5787;SDS011;2920;48.158;12.254;2023-04-07T12:30:54;5.40;;;3.88;;
5787;SDS011;2920;48.158;12.254;2023-04-07T12:33:19;9.18;;;5.50;;
5787;SDS011;2920;48.158;12.254;2023-04-07T12:35:45;5.45;;;3.22;;
5787;SDS011;2920;48.158;12.254;2023-04-07T12:38:11;5.65;;;3.70;;
5787;SDS011;2920;48.158;12.254;2023-04-07T12:40:36;4.65;;;3.35;;
5787;SDS011;2920;48.158;12.254;2023-04-07T12:43:02;4.25;;;2.78;;
5787;SDS011;2920;48.158;12.254;2023-04-07T12:45:31;7.10;;;4.17;;
5787;SDS011;2920;48.158;12.254;2023-04-07T12:47:56;7.25;;;5.38;;
5787;SDS011;2920;48.158;12.254;2023-04-07T12:50:22;6.28;;;4.07;;
5787;SDS011;2920;48.158;12.254;2023-04-07T12:52:49;8.90;;;5.50;;
5787;SDS011;2920;48.158;12.254;2023-04-07T12:55:15;7.60;;;5.35;;
5787;SDS011;2920;48.158;12.254;2023-04-07T12:57:40;4.97;;;3.50;;
5787;SDS011;2920;48.158;12.254;2023-04-07T13:00:05;6.68;;;4.63;;
5787;SDS011;2920;48.158;12.254;2023-04-07T13:02:32;4.72;;;3.50;;
5787;SDS011;2920;48.158;12.254;2023-04-07T13:04:58;5.40;;;3.85;;
5787;SDS011;2920;48.158;12.254;2023-04-07T13:07:23;5.85;;;3.78;;
5787;SDS011;2920;48.158;12.254;2023-04-07T13:09:49;5.10;;;3.75;;
5787;SDS011;2920;48.158;12.254;2023-04-07T13:12:14;5.68;;;4.13;;
5787;SDS011;2920;48.158;12.254;2023-04-07T13:14:40;6.80;;;3.58;;
5787;SDS011;2920;48.158;12.254;2023-04-07T13:17:06;6.20;;;3.10;;
5787;SDS011;2920;48.158;12.254;2023-04-07T13:19:32;6.15;;;3.50;;
5787;SDS011;2920;48.158;12.254;2023-04-07T13:21:58;6.47;;;5.07;;
5787;SDS011;2920;48.158;12.254;2023-04-07T13:24:24;5.50;;;3.72;;
5787;SDS011;2920;48.158;12.254;2023-04-07T13:26:50;4.80;;;3.28;;
5787;SDS011;2920;48.158;12.254;2023-04-07T13:29:16;6.95;;;4.63;;
5787;SDS011;2920;48.158;12.254;2023-04-07T13:31:45;6.88;;;5.05;;
5787;SDS011;2920;48.158;12.254;2023-04-07T13:34:11;4.25;;;2.80;;
5787;SDS011;2920;48.158;12.254;2023-04-07T13:36:37;5.53;;;3.80;;
5787;SDS011;2920;48.158;12.254;2023-04-07T13:39:03;4.50;;;3.55;;
5787;SDS011;2920;48.158;12.254;2023-04-07T13:41:28;9.95;;;4.40;;
5787;SDS011;2920;48.158;12.254;2023-04-07T13:43:53;4.50;;;3.25;;
5787;SDS011;2920;48.158;12.254;2023-04-07T13:46:19;4.95;;;3.95;;
5787;SDS011;2920;48.158;12.254;2023-04-07T13:48:44;7.13;;;4.75;;
5787;SDS011;2920;48.158;12.254;2023-04-07T13:51:09;9.02;;;5.53;;
5787;SDS011;2920;48.158;12.254;2023-04-07T13:53:35;7.00;;;5.07;;
5787;SDS011;2920;48.158;12.254;2023-04-07T13:56:00;6.53;;;4.90;;
5787;SDS011;2920;48.158;12.254;2023-04-07T13:58:27;8.25;;;5.10;;
5787;SDS011;2920;48.158;12.254;2023-04-07T14:00:53;6.90;;;4.63;;
5787;SDS011;2920;48.158;12.254;2023-04-07T14:03:18;8.68;;;5.22;;
5787;SDS011;2920;48.158;12.254;2023-04-07T14:05:44;6.72;;;4.65;;
5787;SDS011;2920;48.158;12.254;2023-04-07T14:08:09;6.90;;;4.75;;
5787;SDS011;2920;48.158;12.254;2023-04-07T14:10:35;6.70;;;4.30;;
5787;SDS011;2920;48.158;12.254;2023-04-07T14:13:00;6.97;;;5.25;;
5787;SDS011;2920;48.158;12.254;2023-04-07T14:15:26;7.43;;;5.15;;
5787;SDS011;2920;48.158;12.254;2023-04-07T14:17:51;6.68;;;4.65;;
5787;SDS011;2920;48.158;12.254;2023-04-07T14:20:16;6.68;;;4.47;;
5787;SDS011;2920;48.158;12.254;2023-04-07T14:22:42;6.45;;;4.05;;
5787;SDS011;2920;48.158;12.254;2023-04-07T14:25:08;6.90;;;4.55;;
5787;SDS011;2920;48.158;12.254;2023-04-07T14:27:35;8.55;;;4.35;;
5787;SDS011;2920;48.158;12.254;2023-04-07T14:30:01;5.80;;;4.18;;
5787;SDS011;2920;48.158;12.254;2023-04-07T14:32:26;5.80;;;4.20;;
5787;SDS011;2920;48.158;12.254;2023-04-07T14:34:56;6.63;;;4.90;;
5787;SDS011;2920;48.158;12.254;2023-04-07T14:37:23;4.82;;;3.50;;
5787;SDS011;2920;48.158;12.254;2023-04-07T14:39:50;8.07;;;4.45;;
5787;SDS011;2920;48.158;12.254;2023-04-07T14:42:18;6.60;;;3.95;;
5787;SDS011;2920;48.158;12.254;2023-04-07T14:44:44;5.43;;;3.97;;
5787;SDS011;2920;48.158;12.254;2023-04-07T14:47:11;4.22;;;2.95;;
5787;SDS011;2920;48.158;12.254;2023-04-07T14:49:36;6.63;;;4.10;;
5787;SDS011;2920;48.158;12.254;2023-04-07T14:52:02;6.20;;;4.60;;
5787;SDS011;2920;48.158;12.254;2023-04-07T14:54:27;6.43;;;4.38;;
5787;SDS011;2920;48.158;12.254;2023-04-07T14:56:53;5.00;;;3.58;;
5787;SDS011;2920;48.158;12.254;2023-04-07T14:59:18;5.70;;;3.88;;
5787;SDS011;2920;48.158;12.254;2023-04-07T15:01:44;6.25;;;4.00;;
5787;SDS011;2920;48.158;12.254;2023-04-07T15:04:09;6.30;;;3.65;;
5787;SDS011;2920;48.158;12.254;2023-04-07T15:06:35;6.28;;;4.05;;
5787;SDS011;2920;48.158;12.254;2023-04-07T15:09:00;6.38;;;4.50;;